Time;durP1;ratioP1;P1;durP2;ratioP2;P2;SDS_P1;SDS_P2;PMS_P1;PMS_P2;Temp;Humidity;BMP_temperature;BMP_pressure;BME280_temperature;BME280_humidity;BME280_pressure;Samples;Min_cycle;Max_cycle;Signal;HPM_P1;HPM_P2
2023/06/13 00:02:07;;;;;;;0.50;0.40;;;;;;;19.08;100.00;94854.22;5113534;28;20931;-61
2023/06/13 00:04:35;;;;;;;0.50;0.30;;;;;;;19.26;100.00;94857.47;5113402;28;20443;-61
2023/06/13 00:07:07;;;;;;;0.70;0.30;;;;;;;19.31;100.00;94850.00;5113476;28;20432;-61
2023/06/13 00:09:36;;;;;;;0.60;0.50;;;;;;;19.32;100.00;94843.50;5088056;28;20931;-60
2023/06/13 00:12:05;;;;;;;0.87;0.87;;;;;;;19.33;100.00;94853.13;5113022;28;20474;-61
2023/06/13 00:14:33;;;;;;;0.60;0.50;;;;;;;19.30;100.00;94844.97;5113599;28;20471;-62
2023/06/13 00:17:04;;;;;;;0.73;0.73;;;;;;;19.31;100.00;94844.63;5113298;28;20440;-61
2023/06/13 00:19:33;;;;;;;0.93;0.50;;;;;;;19.28;100.00;94849.88;5113480;28;20436;-61
2023/06/13 00:22:08;;;;;;;0.50;0.40;;;;;;;19.08;100.00;94845.38;5113224;28;20443;-61
2023/06/13 00:24:37;;;;;;;1.83;0.80;;;;;;;18.97;100.00;94832.38;5113312;28;20446;-61
2023/06/13 00:27:07;;;;;;;0.50;0.30;;;;;;;18.52;100.00;94831.59;5112728;28;20459;-61
2023/06/13 00:29:35;;;;;;;1.10;1.10;;;;;;;18.39;100.00;94838.00;5112422;28;20474;-61
2023/06/13 00:32:06;;;;;;;0.50;0.40;;;;;;;18.38;100.00;94834.53;5112680;28;20443;-61
2023/06/13 00:34:35;;;;;;;0.50;0.30;;;;;;;18.30;100.00;94837.28;5112701;28;20431;-61
2023/06/13 00:37:05;;;;;;;0.50;0.40;;;;;;;17.76;100.00;94828.38;5112914;28;20435;-61
2023/06/13 00:39:33;;;;;;;0.60;0.50;;;;;;;18.12;100.00;94839.34;5113137;28;20489;-61
2023/06/13 00:42:02;;;;;;;0.50;0.30;;;;;;;18.09;100.00;94837.28;5112835;28;20769;-60
2023/06/13 00:44:31;;;;;;;0.83;0.73;;;;;;;17.82;100.00;94800.28;5112657;28;20473;-58
2023/06/13 00:47:00;;;;;;;0.60;0.40;;;;;;;17.88;100.00;94830.38;5112934;28;20465;-61
2023/06/13 00:49:31;;;;;;;0.70;0.70;;;;;;;18.09;100.00;94823.13;5112678;28;20428;-60
2023/06/13 00:52:04;;;;;;;1.33;1.33;;;;;;;17.96;100.00;94829.53;5112655;28;20439;-60
2023/06/13 00:54:36;;;;;;;0.50;0.33;;;;;;;17.91;100.00;94811.72;5111663;28;20759;-60
2023/06/13 00:57:06;;;;;;;0.50;0.40;;;;;;;17.95;100.00;94820.69;5112767;28;20436;-61
2023/06/13 00:59:35;;;;;;;0.53;0.47;;;;;;;17.74;100.00;94817.22;5112061;28;20435;-60
2023/06/13 01:02:04;;;;;;;0.50;0.50;;;;;;;18.03;100.00;94811.81;5112391;28;20496;-61
2023/06/13 01:04:34;;;;;;;0.67;0.43;;;;;;;18.15;100.00;94811.88;5112664;28;20512;-60
2023/06/13 01:07:05;;;;;;;0.50;0.40;;;;;;;18.37;100.00;94808.81;5112223;28;20428;-61
2023/06/13 01:09:35;;;;;;;1.23;0.50;;;;;;;18.45;100.00;94809.84;5112164;28;20436;-61
2023/06/13 01:12:10;;;;;;;1.03;0.53;;;;;;;18.66;100.00;94797.19;5111942;28;20439;-61
2023/06/13 01:14:48;;;;;;;0.80;0.50;;;;;;;18.83;100.00;94805.06;5112330;28;20446;-61
2023/06/13 01:17:24;;;;;;;0.50;0.40;;;;;;;18.79;100.00;94789.94;5112189;28;20436;-61
2023/06/13 01:19:58;;;;;;;0.40;0.30;;;;;;;18.90;100.00;94796.44;5112470;28;20456;-61
2023/06/13 01:22:38;;;;;;;0.50;0.30;;;;;;;18.62;100.00;94800.88;5111368;28;20440;-61
2023/06/13 01:25:13;;;;;;;0.60;0.40;;;;;;;18.81;100.00;94803.81;5112080;28;20435;-61
2023/06/13 01:27:49;;;;;;;2.43;0.70;;;;;;;18.89;100.00;94811.00;5112205;28;21019;-62
2023/06/13 01:30:19;;;;;;;0.50;0.40;;;;;;;18.53;100.00;94805.53;5111797;28;20582;-62
2023/06/13 01:32:50;;;;;;;1.00;0.87;;;;;;;18.55;100.00;94737.00;5112314;28;20893;-62
2023/06/13 01:35:19;;;;;;;1.10;1.10;;;;;;;19.23;100.00;94805.19;5111875;28;20432;-61
2023/06/13 01:37:47;;;;;;;0.70;0.50;;;;;;;18.96;100.00;94811.22;5111813;28;20956;-61
2023/06/13 01:40:16;;;;;;;0.70;0.60;;;;;;;19.08;100.00;94792.44;5111906;28;20479;-61
2023/06/13 01:42:46;;;;;;;0.40;0.40;;;;;;;19.08;100.00;94797.81;5112098;28;20519;-61
2023/06/13 01:45:14;;;;;;;0.63;0.63;;;;;;;19.06;100.00;94816.16;5111553;28;20448;-61
2023/06/13 01:47:51;;;;;;;0.87;0.37;;;;;;;19.00;100.00;94812.13;5111968;28;20427;-60
2023/06/13 01:50:28;;;;;;;0.40;0.20;;;;;;;19.22;100.00;94813.63;5111919;28;20948;-61
2023/06/13 01:53:04;;;;;;;0.40;0.30;;;;;;;19.31;100.00;94814.28;5111257;28;20528;-59
2023/06/13 01:55:40;;;;;;;0.60;0.50;;;;;;;19.37;100.00;94813.75;5111971;28;20431;-61
2023/06/13 01:58:14;;;;;;;0.40;0.30;;;;;;;19.47;100.00;94812.53;5111801;28;20436;-60
2023/06/13 02:00:43;;;;;;;0.70;0.50;;;;;;;19.42;100.00;94796.63;5111654;28;20439;-60
2023/06/13 02:03:13;;;;;;;0.50;0.30;;;;;;;19.53;100.00;94803.13;5111824;28;20794;-61
2023/06/13 02:05:41;;;;;;;0.50;0.50;;;;;;;19.45;100.00;94804.00;5099928;28;20444;-61
2023/06/13 02:08:10;;;;;;;0.50;0.40;;;;;;;19.26;100.00;94803.75;5116409;28;20427;-61
2023/06/13 02:10:38;;;;;;;0.57;0.57;;;;;;;19.24;100.00;94804.09;5115473;28;20492;-61
2023/06/13 02:13:07;;;;;;;0.40;0.30;;;;;;;19.16;100.00;94799.59;5115419;28;20506;-61
2023/06/13 02:15:37;;;;;;;0.80;0.80;;;;;;;19.35;100.00;94810.59;5115384;28;20459;-61
2023/06/13 02:18:06;;;;;;;1.37;1.07;;;;;;;19.39;100.00;94810.72;5115719;28;20454;-61
2023/06/13 02:20:35;;;;;;;0.50;0.37;;;;;;;19.44;100.00;94810.50;5115830;28;20435;-61
2023/06/13 02:23:03;;;;;;;0.40;0.30;;;;;;;19.33;100.00;94806.66;5115325;28;20501;-61
2023/06/13 02:25:32;;;;;;;0.50;0.40;;;;;;;19.30;100.00;94812.72;5115005;28;20443;-60
2023/06/13 02:28:00;;;;;;;0.40;0.30;;;;;;;19.26;100.00;94806.44;5115352;28;20442;-60
2023/06/13 02:30:28;;;;;;;0.63;0.33;;;;;;;19.28;100.00;94815.72;5114945;28;20463;-61
2023/06/13 02:32:58;;;;;;;0.60;0.50;;;;;;;19.16;100.00;94810.34;5115076;28;20432;-60
2023/06/13 02:35:27;;;;;;;0.40;0.20;;;;;;;18.86;100.00;94812.44;5114785;28;20973;-60
2023/06/13 02:37:56;;;;;;;0.60;0.60;;;;;;;18.97;100.00;94818.94;5115299;28;20923;-60
2023/06/13 02:40:24;;;;;;;1.07;0.40;;;;;;;19.08;100.00;94821.19;5114893;28;20472;-60
2023/06/13 02:42:54;;;;;;;0.60;0.30;;;;;;;19.03;100.00;94823.00;5114571;28;20447;-60
2023/06/13 02:45:23;;;;;;;0.80;0.50;;;;;;;19.11;100.00;94828.59;5115156;28;20447;-60
2023/06/13 02:47:52;;;;;;;0.40;0.40;;;;;;;19.06;100.00;94831.50;5114797;28;21003;-59
2023/06/13 02:50:22;;;;;;;0.50;0.30;;;;;;;18.79;100.00;94832.91;5115634;27;20493;-60
2023/06/13 02:52:50;;;;;;;0.50;0.40;;;;;;;18.31;100.00;94845.03;5114775;28;20435;-60
2023/06/13 02:55:20;;;;;;;0.40;0.30;;;;;;;17.96;100.00;94843.69;5115245;28;20474;-60
2023/06/13 02:57:49;;;;;;;0.83;0.60;;;;;;;17.50;100.00;94852.66;5114764;28;20436;-59
2023/06/13 03:00:17;;;;;;;0.77;0.73;;;;;;;17.48;100.00;94849.50;5115273;28;20443;-59
2023/06/13 03:02:46;;;;;;;0.77;0.77;;;;;;;17.45;100.00;94860.88;5114197;28;20980;-59
2023/06/13 03:05:15;;;;;;;0.60;0.50;;;;;;;17.55;100.00;94862.44;5115037;28;20444;-59
2023/06/13 03:07:47;;;;;;;0.60;0.60;;;;;;;17.53;100.00;94862.75;5113086;28;20428;-59
2023/06/13 03:10:16;;;;;;;0.50;0.30;;;;;;;17.49;100.00;94861.00;5106925;28;20432;-59
2023/06/13 03:12:45;;;;;;;0.80;0.60;;;;;;;17.38;100.00;94870.53;5114047;27;20432;-58
2023/06/13 03:15:13;;;;;;;0.50;0.30;;;;;;;17.57;100.00;94863.69;5114928;28;20997;-58
2023/06/13 03:17:42;;;;;;;0.50;0.37;;;;;;;18.04;100.00;94866.19;5113907;28;20427;-59
2023/06/13 03:20:11;;;;;;;0.50;0.40;;;;;;;18.13;100.00;94864.25;5114102;28;20436;-58
2023/06/13 03:22:39;;;;;;;0.50;0.30;;;;;;;18.17;100.00;94865.94;5114394;28;20447;-60
2023/06/13 03:25:10;;;;;;;0.50;0.30;;;;;;;18.34;100.00;94859.69;5114436;28;20551;-59
2023/06/13 03:27:39;;;;;;;0.40;0.20;;;;;;;18.42;100.00;94864.16;5114330;28;20463;-59
2023/06/13 03:30:08;;;;;;;0.40;0.30;;;;;;;18.31;100.00;94860.34;5113662;28;20528;-59
2023/06/13 03:32:36;;;;;;;0.40;0.30;;;;;;;18.48;100.00;94865.56;5114049;28;20560;-60
2023/06/13 03:35:05;;;;;;;0.50;0.40;;;;;;;18.36;100.00;94871.66;5114151;28;20540;-59
2023/06/13 03:37:34;;;;;;;0.70;0.70;;;;;;;18.42;100.00;94878.38;5113845;28;20436;-60
2023/06/13 03:40:02;;;;;;;0.90;0.63;;;;;;;18.31;100.00;94863.03;5113797;28;20439;-59
2023/06/13 03:42:32;;;;;;;0.90;0.70;;;;;;;18.34;100.00;94884.59;5114082;28;20459;-59
2023/06/13 03:45:00;;;;;;;0.83;0.60;;;;;;;18.14;100.00;94880.00;5113719;28;20432;-58
2023/06/13 03:47:29;;;;;;;0.57;0.37;;;;;;;18.29;100.00;94876.75;5114086;28;20538;-60
2023/06/13 03:49:57;;;;;;;0.40;0.30;;;;;;;18.44;100.00;94878.06;5113513;27;20432;-61
2023/06/13 03:52:26;;;;;;;0.53;0.47;;;;;;;18.59;100.00;94882.84;5113729;28;20439;-60
2023/06/13 03:54:54;;;;;;;2.30;1.37;;;;;;;18.40;100.00;94883.28;5112922;28;20472;-60
2023/06/13 03:57:23;;;;;;;0.60;0.50;;;;;;;18.40;100.00;94891.34;5113722;28;20468;-61
2023/06/13 03:59:55;;;;;;;2.80;0.87;;;;;;;18.28;100.00;94888.59;5113635;28;20447;-59
2023/06/13 04:02:23;;;;;;;1.00;1.00;;;;;;;18.28;100.00;94901.22;5113643;28;20822;-64
2023/06/13 04:04:52;;;;;;;1.30;0.60;;;;;;;18.44;100.00;94891.47;5114202;28;20518;-65
2023/06/13 04:07:22;;;;;;;0.60;0.60;;;;;;;18.93;100.00;94895.94;5113682;28;20432;-64
2023/06/13 04:09:50;;;;;;;0.50;0.30;;;;;;;18.74;100.00;94890.28;5113493;28;20844;-65
2023/06/13 04:12:21;;;;;;;0.60;0.60;;;;;;;18.08;100.00;94899.31;5112934;28;20795;-63
2023/06/13 04:14:49;;;;;;;0.60;0.40;;;;;;;18.23;100.00;94899.53;5113506;28;20474;-65
2023/06/13 04:17:19;;;;;;;5.80;0.60;;;;;;;18.48;100.00;94894.31;5113002;28;20431;-65
2023/06/13 04:19:48;;;;;;;0.60;0.47;;;;;;;18.72;100.00;94894.41;5113660;28;20435;-64
2023/06/13 04:22:18;;;;;;;0.90;0.40;;;;;;;19.13;100.00;94896.19;5099444;28;20445;-64
2023/06/13 04:24:46;;;;;;;0.40;0.30;;;;;;;18.93;100.00;94898.63;5113320;28;20447;-64
2023/06/13 04:27:19;;;;;;;0.67;0.67;;;;;;;18.67;100.00;94897.31;5112988;28;20463;-63
2023/06/13 04:29:49;;;;;;;1.80;0.40;;;;;;;18.85;100.00;94896.81;5113244;28;20870;-63
2023/06/13 04:32:18;;;;;;;0.53;0.33;;;;;;;18.72;100.00;94905.16;5112964;28;20939;-62
2023/06/13 04:34:52;;;;;;;0.60;0.40;;;;;;;19.23;100.00;94907.31;5112649;28;20464;-60
2023/06/13 04:37:25;;;;;;;0.70;0.63;;;;;;;19.67;100.00;94899.53;5113070;28;20447;-61
2023/06/13 04:39:54;;;;;;;0.40;0.30;;;;;;;19.76;100.00;94902.91;5112577;28;20446;-61
2023/06/13 04:42:27;;;;;;;0.60;0.50;;;;;;;19.68;100.00;94907.28;5113077;28;20447;-61
2023/06/13 04:44:58;;;;;;;0.53;0.30;;;;;;;19.71;100.00;94909.28;5112714;28;20467;-59
2023/06/13 04:47:29;;;;;;;0.50;0.40;;;;;;;19.66;100.00;94909.50;5112759;28;21000;-60
2023/06/13 04:50:21;;;;;;;1.27;0.77;;;;;;;19.27;100.00;94861.75;5112731;28;20473;-60
2023/06/13 04:52:53;;;;;;;0.47;0.33;;;;;;;19.73;100.00;94907.06;5112525;28;20450;-59
2023/06/13 04:55:22;;;;;;;0.73;0.43;;;;;;;19.72;100.00;94908.16;5112240;28;20483;-59
2023/06/13 04:57:51;;;;;;;0.60;0.60;;;;;;;19.90;100.00;94901.44;5112455;28;20441;-59
2023/06/13 05:00:22;;;;;;;1.20;1.10;;;;;;;20.18;100.00;94902.31;5112581;28;20440;-59
2023/06/13 05:02:52;;;;;;;1.13;0.60;;;;;;;19.99;100.00;94912.06;5112446;28;20439;-59
2023/06/13 05:05:20;;;;;;;0.50;0.50;;;;;;;19.91;100.00;94919.13;5112700;28;20492;-58
2023/06/13 05:07:49;;;;;;;0.70;0.67;;;;;;;19.75;100.00;94918.25;5112353;28;20450;-59
2023/06/13 05:10:17;;;;;;;0.80;0.80;;;;;;;19.65;100.00;94918.72;5112157;28;20436;-59
2023/06/13 05:12:46;;;;;;;0.60;0.40;;;;;;;19.83;100.00;94920.06;5112646;28;20443;-59
2023/06/13 05:15:16;;;;;;;0.47;0.40;;;;;;;20.17;100.00;94924.16;5111904;28;20497;-58
2023/06/13 05:17:46;;;;;;;0.50;0.40;;;;;;;20.35;100.00;94927.41;5112215;28;20450;-58
2023/06/13 05:20:16;;;;;;;0.73;0.73;;;;;;;20.37;100.00;94914.38;5112141;28;20830;-57
2023/06/13 05:22:45;;;;;;;0.50;0.40;;;;;;;20.20;100.00;94924.28;5112178;28;20443;-57
2023/06/13 05:25:13;;;;;;;0.73;0.57;;;;;;;20.20;100.00;94932.34;5111831;28;20455;-57
2023/06/13 05:27:41;;;;;;;0.50;0.40;;;;;;;20.39;100.00;94926.38;5111941;28;20467;-57
2023/06/13 05:30:11;;;;;;;0.77;0.77;;;;;;;20.71;100.00;94938.09;5111948;28;20528;-57
2023/06/13 05:32:41;;;;;;;0.60;0.60;;;;;;;20.93;100.00;94942.94;5112531;28;20440;-57
2023/06/13 05:35:09;;;;;;;0.50;0.40;;;;;;;20.97;100.00;94935.75;5111782;28;21003;-57
2023/06/13 05:37:40;;;;;;;0.50;0.43;;;;;;;20.87;100.00;94947.03;5112338;28;20440;-57
2023/06/13 05:40:09;;;;;;;0.80;0.50;;;;;;;21.07;100.00;94940.69;5111584;28;20438;-57
2023/06/13 05:42:38;;;;;;;0.50;0.40;;;;;;;20.86;100.00;94930.06;5112073;28;20440;-57
2023/06/13 05:45:09;;;;;;;0.40;0.30;;;;;;;21.00;100.00;94940.44;5111769;28;20444;-57
2023/06/13 05:47:37;;;;;;;0.70;0.40;;;;;;;20.61;100.00;94947.44;5111919;28;20428;-56
2023/06/13 05:50:06;;;;;;;2.93;2.07;;;;;;;20.64;100.00;94937.88;5112127;28;20931;-56
2023/06/13 05:52:35;;;;;;;0.47;0.30;;;;;;;21.16;100.00;94935.91;5111611;28;20974;-55
2023/06/13 05:55:05;;;;;;;0.80;0.50;;;;;;;21.84;100.00;94946.47;5112236;28;20528;-57
2023/06/13 05:57:40;;;;;;;2.30;0.70;;;;;;;21.66;96.85;94937.16;5111440;28;20951;-55
2023/06/13 06:00:13;;;;;;;0.60;0.60;;;;;;;21.71;100.00;94943.06;5112032;28;20432;-55
2023/06/13 06:02:43;;;;;;;0.50;0.50;;;;;;;22.01;100.00;94940.75;5111826;28;20500;-56
2023/06/13 06:05:13;;;;;;;2.23;1.77;;;;;;;21.78;96.18;94942.50;5111863;28;20939;-56
2023/06/13 06:07:43;;;;;;;0.80;0.53;;;;;;;22.12;96.80;94925.59;5111515;28;20443;-55
2023/06/13 06:10:14;;;;;;;0.70;0.50;;;;;;;22.23;93.57;94929.31;5111809;28;20428;-55
2023/06/13 06:12:43;;;;;;;0.90;0.90;;;;;;;22.40;96.65;94930.81;5099160;28;20438;-55
2023/06/13 06:15:12;;;;;;;0.50;0.50;;;;;;;22.26;95.57;94892.72;5111330;28;20555;-57
2023/06/13 06:17:40;;;;;;;0.50;0.50;;;;;;;22.32;89.31;94927.19;5111609;28;20440;-65
2023/06/13 06:20:10;;;;;;;0.47;0.40;;;;;;;22.68;87.30;94926.84;5111260;28;20442;-65
2023/06/13 06:22:38;;;;;;;1.53;1.43;;;;;;;22.01;90.38;94924.56;5111575;28;20435;-64
2023/06/13 06:25:12;;;;;;;0.63;0.50;;;;;;;22.21;89.18;94918.09;5111280;28;20947;-62
2023/06/13 06:28:01;;;;;;;0.50;0.43;;;;;;;22.18;92.33;94926.09;5111762;28;20532;-62
2023/06/13 06:30:30;;;;;;;0.50;0.50;;;;;;;22.01;92.49;94930.72;5110843;28;20502;-63
2023/06/13 06:32:59;;;;;;;0.40;0.37;;;;;;;22.46;90.70;94930.22;5111735;28;20459;-62
2023/06/13 06:35:27;;;;;;;2.23;0.60;;;;;;;22.44;87.71;94924.34;5111348;28;20474;-62
2023/06/13 06:37:55;;;;;;;0.70;0.70;;;;;;;22.79;90.64;94923.59;5111311;28;20439;-62
2023/06/13 06:40:24;;;;;;;0.60;0.57;;;;;;;23.15;88.17;94921.19;5084806;28;20859;-61
2023/06/13 06:42:52;;;;;;;0.40;0.33;;;;;;;22.94;88.11;94926.22;5111592;28;20436;-61
2023/06/13 06:45:22;;;;;;;0.40;0.30;;;;;;;23.04;88.56;94922.94;5111522;28;20822;-61
2023/06/13 06:47:50;;;;;;;0.90;0.90;;;;;;;22.59;90.64;94918.13;5111084;28;20446;-61
2023/06/13 06:50:19;;;;;;;1.37;1.07;;;;;;;22.63;88.96;94927.13;5111238;28;20947;-61
2023/06/13 06:52:47;;;;;;;0.70;0.70;;;;;;;23.38;85.44;94925.91;5112593;28;20492;-61
2023/06/13 06:55:16;;;;;;;1.17;1.10;;;;;;;22.67;90.26;94925.28;5114875;28;20859;-61
2023/06/13 06:57:44;;;;;;;0.73;0.73;;;;;;;22.32;89.62;94924.50;5113675;28;20431;-61
2023/06/13 07:00:14;;;;;;;0.40;0.40;;;;;;;22.48;87.39;94922.53;5114886;28;20443;-61
2023/06/13 07:02:45;;;;;;;0.50;0.30;;;;;;;22.45;89.58;94925.94;5114254;28;20518;-61
2023/06/13 07:05:15;;;;;;;0.50;0.40;;;;;;;22.43;90.13;94928.22;5114728;28;20432;-62
2023/06/13 07:07:44;;;;;;;0.40;0.40;;;;;;;22.86;88.50;94929.13;5114818;28;20431;-62
2023/06/13 07:10:12;;;;;;;0.87;0.87;;;;;;;22.82;87.07;94933.69;5114396;28;20436;-60
2023/06/13 07:12:42;;;;;;;0.50;0.40;;;;;;;23.09;88.66;94917.25;5114212;27;20442;-61
2023/06/13 07:15:10;;;;;;;1.03;0.40;;;;;;;23.09;86.21;94929.97;5114143;28;20471;-61
2023/06/13 07:17:39;;;;;;;0.60;0.50;;;;;;;23.27;85.35;94920.28;5114263;28;20508;-62
2023/06/13 07:20:11;;;;;;;5.60;0.80;;;;;;;23.12;85.43;94932.72;5114403;28;20435;-62
2023/06/13 07:22:40;;;;;;;0.67;0.67;;;;;;;22.97;84.90;94932.81;5114558;28;20443;-63
2023/06/13 07:25:09;;;;;;;1.10;1.10;;;;;;;22.97;83.13;94911.22;5114412;28;20440;-62
2023/06/13 07:27:37;;;;;;;0.70;0.50;;;;;;;22.42;85.06;94929.34;5114233;28;20447;-62
2023/06/13 07:30:07;;;;;;;1.40;1.00;;;;;;;22.21;87.03;94917.31;5113874;28;20528;-63
2023/06/13 07:32:35;;;;;;;0.50;0.50;;;;;;;22.01;89.08;94882.16;5114362;28;20436;-63
2023/06/13 07:35:05;;;;;;;0.57;0.57;;;;;;;22.60;89.51;94917.00;5114016;28;20486;-63
2023/06/13 07:37:36;;;;;;;1.27;1.23;;;;;;;23.11;86.70;94911.47;5114103;28;20860;-65
2023/06/13 07:40:07;;;;;;;0.93;0.40;;;;;;;23.69;84.35;94910.22;5113743;28;20447;-66
2023/06/13 07:42:36;;;;;;;0.43;0.40;;;;;;;22.53;85.12;94921.47;5113872;28;20443;-66
2023/06/13 07:45:05;;;;;;;0.50;0.47;;;;;;;22.73;84.05;94910.34;5113731;28;20436;-66
2023/06/13 07:47:33;;;;;;;1.00;1.00;;;;;;;22.50;85.38;94914.84;5113564;28;20501;-66
2023/06/13 07:50:02;;;;;;;0.40;0.40;;;;;;;22.82;81.26;94898.56;5086454;28;20444;-68
2023/06/13 07:52:30;;;;;;;0.40;0.33;;;;;;;23.97;78.80;94910.66;5113325;28;20474;-66
2023/06/13 07:55:00;;;;;;;0.80;0.80;;;;;;;24.47;76.69;94911.38;5114078;28;20439;-65
2023/06/13 07:57:28;;;;;;;0.53;0.43;;;;;;;24.53;74.08;94910.72;5113745;28;20463;-64
2023/06/13 08:00:00;;;;;;;0.70;0.63;;;;;;;23.81;75.20;94914.63;5113521;28;20453;-64
2023/06/13 08:02:29;;;;;;;5.70;0.33;;;;;;;24.92;72.21;94902.31;5113337;28;21016;-67
2023/06/13 08:04:58;;;;;;;0.40;0.20;;;;;;;24.00;70.95;94912.66;5113286;28;20436;-64
2023/06/13 08:07:27;;;;;;;0.40;0.30;;;;;;;24.55;74.06;94913.84;5115869;28;20446;-61
2023/06/13 08:09:55;;;;;;;0.40;0.30;;;;;;;24.95;71.70;94907.00;5113991;28;20444;-64
2023/06/13 08:12:25;;;;;;;0.50;0.30;;;;;;;24.09;71.47;94912.41;5113025;28;20435;-63
2023/06/13 08:14:54;;;;;;;0.60;0.50;;;;;;;24.40;71.86;94905.88;5113581;28;20451;-63
2023/06/13 08:17:24;;;;;;;0.40;0.33;;;;;;;24.45;70.55;94900.94;5112807;28;21003;-63
2023/06/13 08:19:53;;;;;;;0.40;0.40;;;;;;;25.04;69.18;94899.34;5113433;28;20436;-62
2023/06/13 08:22:21;;;;;;;0.37;0.30;;;;;;;25.48;67.51;94902.16;5113072;28;20961;-62
2023/06/13 08:24:49;;;;;;;0.67;0.67;;;;;;;25.13;71.07;94903.34;5113107;28;20440;-62
2023/06/13 08:27:18;;;;;;;0.40;0.37;;;;;;;25.48;70.24;94900.22;5113151;28;20438;-62
2023/06/13 08:29:48;;;;;;;0.50;0.30;;;;;;;25.65;69.71;94896.13;5113232;28;20876;-62
2023/06/13 08:32:16;;;;;;;0.50;0.50;;;;;;;25.99;65.57;94758.25;5113092;28;20982;-64
2023/06/13 08:34:45;;;;;;;0.77;0.77;;;;;;;26.33;62.78;94879.97;5112935;28;20444;-64
2023/06/13 08:37:14;;;;;;;0.80;0.80;;;;;;;25.77;63.87;94880.31;5112888;28;20474;-64
2023/06/13 08:39:42;;;;;;;1.00;0.90;;;;;;;26.40;64.56;94874.56;5112562;28;20439;-63
2023/06/13 08:42:11;;;;;;;0.50;0.47;;;;;;;27.71;60.71;94864.09;5113144;28;20454;-64
2023/06/13 08:44:42;;;;;;;0.77;0.77;;;;;;;27.33;60.38;94859.34;5112677;28;20440;-63
2023/06/13 08:47:12;;;;;;;0.40;0.30;;;;;;;28.50;56.63;94854.66;5112679;28;20531;-66
2023/06/13 08:50:01;;;;;;;0.50;0.50;;;;;;;29.15;58.01;94856.72;5112534;28;20444;-66
2023/06/13 08:52:37;;;;;;;0.60;0.53;;;;;;;27.91;56.19;94850.84;5112627;28;21054;-65
2023/06/13 08:55:08;;;;;;;0.60;0.50;;;;;;;28.27;57.05;94861.34;5112718;28;20427;-66
2023/06/13 08:57:59;;;;;;;0.47;0.40;;;;;;;28.80;58.11;94847.56;5111946;28;20471;-66
2023/06/13 09:00:28;;;;;;;0.93;0.30;;;;;;;27.75;58.76;94847.75;5112718;28;20440;-67
2023/06/13 09:02:59;;;;;;;0.50;0.50;;;;;;;28.25;60.04;94841.09;5112615;28;20867;-67
2023/06/13 09:05:28;;;;;;;0.40;0.30;;;;;;;28.65;56.26;94846.06;5111890;28;20500;-63
2023/06/13 09:07:58;;;;;;;0.50;0.50;;;;;;;28.46;55.79;94838.31;5112389;28;20504;-65
2023/06/13 09:10:47;;;;;;;0.40;0.30;;;;;;;29.13;55.73;94838.03;5112424;28;20479;-66
2023/06/13 09:13:18;;;;;;;0.40;0.40;;;;;;;28.76;52.98;94835.13;5112853;28;20440;-65
2023/06/13 09:15:47;;;;;;;0.60;0.50;;;;;;;29.23;55.53;94831.75;5111968;28;20428;-65
2023/06/13 09:18:18;;;;;;;0.67;0.67;;;;;;;30.37;51.20;94826.16;5112319;28;20561;-67
2023/06/13 09:20:48;;;;;;;0.47;0.40;;;;;;;30.51;47.86;94788.47;5112562;28;20799;-65
2023/06/13 09:23:18;;;;;;;0.53;0.53;;;;;;;29.77;48.68;94830.19;5111928;28;21013;-65
2023/06/13 09:25:48;;;;;;;0.40;0.40;;;;;;;30.06;48.17;94784.25;5112376;28;20880;-66
2023/06/13 09:28:33;;;;;;;0.60;0.40;;;;;;;29.78;48.38;94822.81;5106360;28;20492;-65
2023/06/13 09:31:02;;;;;;;0.80;0.57;;;;;;;28.88;48.88;94821.03;5111726;28;20463;-67
2023/06/13 09:33:32;;;;;;;0.80;0.80;;;;;;;29.49;50.67;94797.66;5111911;28;20946;-67
2023/06/13 09:36:00;;;;;;;3.97;0.47;;;;;;;30.06;48.80;94812.38;5111980;28;20439;-67
2023/06/13 09:38:50;;;;;;;0.40;0.30;;;;;;;29.64;51.21;94811.97;5112086;28;20522;-68
2023/06/13 09:41:21;;;;;;;2.73;2.50;;;;;;;29.36;48.35;94811.00;5110838;28;20500;-67
2023/06/13 09:43:53;;;;;;;0.67;0.60;;;;;;;29.83;48.25;94812.19;5100949;28;20934;-67
2023/06/13 09:46:23;;;;;;;0.70;0.53;;;;;;;30.61;47.71;94798.50;5111633;28;20438;-67
2023/06/13 09:48:53;;;;;;;0.50;0.40;;;;;;;31.54;45.17;94798.84;5111855;28;21022;-67
2023/06/13 09:51:22;;;;;;;1.13;0.40;;;;;;;32.28;43.50;94788.56;5111787;28;20435;-69
2023/06/13 09:53:51;;;;;;;0.67;0.67;;;;;;;32.03;44.00;94791.75;5111942;28;20434;-68
2023/06/13 09:56:19;;;;;;;0.47;0.40;;;;;;;31.76;45.33;94771.84;5111219;28;20490;-70
2023/06/13 09:58:52;;;;;;;0.40;0.30;;;;;;;32.20;45.12;94789.88;5112480;28;20566;-70
2023/06/13 10:01:21;;;;;;;0.50;0.47;;;;;;;32.95;43.85;94790.72;5112303;28;20431;-70
2023/06/13 10:03:49;;;;;;;0.80;0.80;;;;;;;31.70;44.91;94776.25;5111736;28;20441;-69
2023/06/13 10:06:19;;;;;;;0.57;0.33;;;;;;;32.25;44.22;94770.97;5111826;28;20439;-71
2023/06/13 10:08:47;;;;;;;0.40;0.30;;;;;;;32.72;43.63;94776.31;5111683;28;20936;-68
2023/06/13 10:11:22;;;;;;;0.50;0.40;;;;;;;31.70;45.74;94776.25;5111448;28;20948;-70
2023/06/13 10:13:56;;;;;;;0.43;0.43;;;;;;;30.07;47.03;94786.63;5111463;28;20431;-71
2023/06/13 10:16:25;;;;;;;1.23;0.40;;;;;;;30.47;47.16;94737.75;5111791;28;20446;-71
2023/06/13 10:18:55;;;;;;;0.53;0.53;;;;;;;31.32;44.67;94773.69;5112021;28;20475;-70
2023/06/13 10:21:25;;;;;;;0.50;0.40;;;;;;;31.26;47.35;94771.84;5114506;28;20965;-69
2023/06/13 10:23:59;;;;;;;0.97;0.47;;;;;;;31.15;44.51;94776.69;5122280;28;20439;-70
2023/06/13 10:26:37;;;;;;;0.40;0.30;;;;;;;32.34;42.36;94746.50;5114172;28;20955;-66
2023/06/13 10:29:29;;;;;;;0.70;0.53;;;;;;;31.29;44.70;94754.59;5116404;28;20434;-70
2023/06/13 10:32:11;;;;;;;0.40;0.30;;;;;;;31.15;43.90;94763.00;5101902;28;20431;-70
2023/06/13 10:35:02;;;;;;;0.40;0.40;;;;;;;31.27;42.61;94767.94;5115385;28;20451;-69
2023/06/13 10:38:14;;;;;;;0.87;0.60;;;;;;;31.67;43.53;94775.13;5115623;28;20832;-69
2023/06/13 10:41:09;;;;;;;0.60;0.50;;;;;;;31.93;43.50;94765.25;5116020;28;20495;-70
2023/06/13 10:43:43;;;;;;;0.40;0.30;;;;;;;31.84;41.58;94762.31;5115339;28;20980;-69
2023/06/13 10:46:12;;;;;;;0.70;0.70;;;;;;;30.02;43.74;94772.59;5115082;28;20484;-70
2023/06/13 10:48:50;;;;;;;0.40;0.33;;;;;;;28.70;46.90;94772.00;5115546;28;20905;-67
2023/06/13 10:51:22;;;;;;;0.50;0.40;;;;;;;27.73;48.71;94772.66;5100852;28;20447;-66
2023/06/13 10:54:08;;;;;;;0.40;0.40;;;;;;;27.25;48.41;94766.03;5114842;28;20439;-64
2023/06/13 10:56:39;;;;;;;0.40;0.30;;;;;;;26.91;45.76;94773.00;5088261;28;20507;-63
2023/06/13 10:59:09;;;;;;;0.30;0.20;;;;;;;26.41;45.52;94740.22;5114477;28;20817;-62
2023/06/13 11:01:38;;;;;;;0.70;0.47;;;;;;;26.62;46.77;94761.25;5114843;28;20543;-62
2023/06/13 11:04:09;;;;;;;0.30;0.20;;;;;;;26.87;45.89;94770.28;5114675;28;20438;-62
2023/06/13 11:06:39;;;;;;;0.40;0.40;;;;;;;26.34;46.10;94761.94;5114878;28;20943;-62
2023/06/13 11:09:19;;;;;;;0.40;0.40;;;;;;;25.48;47.53;94761.03;5114266;28;20440;-61
2023/06/13 11:11:50;;;;;;;0.40;0.30;;;;;;;25.58;47.72;94752.19;5114751;28;20432;-61
2023/06/13 11:14:24;;;;;;;0.43;0.40;;;;;;;24.16;48.37;94557.03;5114682;28;20436;-60
2023/06/13 11:16:53;;;;;;;0.37;0.27;;;;;;;25.02;48.05;94766.09;5114303;28;20436;-59
2023/06/13 11:19:23;;;;;;;0.40;0.20;;;;;;;24.54;49.91;94765.94;5114265;28;20475;-60
2023/06/13 11:22:07;;;;;;;0.30;0.30;;;;;;;24.98;50.57;94760.63;5114051;28;20954;-60
2023/06/13 11:24:39;;;;;;;0.50;0.30;;;;;;;24.88;51.36;94763.22;5114267;28;20862;-59
2023/06/13 11:27:10;;;;;;;0.40;0.30;;;;;;;25.27;51.75;94758.16;5114016;28;20431;-59
2023/06/13 11:29:39;;;;;;;0.40;0.30;;;;;;;25.19;50.68;94712.00;5102333;28;20481;-56
2023/06/13 11:32:09;;;;;;;0.40;0.20;;;;;;;25.32;51.61;94755.09;5112656;28;20935;-57
2023/06/13 11:34:42;;;;;;;0.30;0.20;;;;;;;25.40;51.97;94737.72;5101265;28;20444;-56
2023/06/13 11:37:20;;;;;;;0.40;0.30;;;;;;;26.05;50.13;94754.03;5087616;28;20439;-57
2023/06/13 11:39:55;;;;;;;0.40;0.30;;;;;;;26.31;48.83;94746.41;5113469;28;20544;-57
2023/06/13 11:42:44;;;;;;;0.40;0.40;;;;;;;26.61;47.88;94745.34;5114004;28;20432;-59
2023/06/13 11:45:12;;;;;;;0.40;0.40;;;;;;;26.98;49.04;94745.81;5113700;28;20440;-59
2023/06/13 11:47:41;;;;;;;0.30;0.30;;;;;;;27.87;48.38;94743.84;5113855;28;20952;-59